sensor_id;sensor_type;location;lat;lon;timestamp;P1;durP1;ratioP1;P2;durP2;ratioP2
26820;SDS011;37186;51.394;5.454;2023-08-06T00:00:00;3.10;;;3.00;;
26820;SDS011;37186;51.394;5.454;2023-08-06T00:03:01;3.03;;;2.92;;
26820;SDS011;37186;51.394;5.454;2023-08-06T00:06:01;2.85;;;2.75;;
26820;SDS011;37186;51.394;5.454;2023-08-06T00:09:02;3.15;;;3.05;;
26820;SDS011;37186;51.394;5.454;2023-08-06T00:12:02;2.92;;;2.83;;
26820;SDS011;37186;51.394;5.454;2023-08-06T00:15:03;2.92;;;2.83;;
26820;SDS011;37186;51.394;5.454;2023-08-06T00:18:04;3.03;;;2.92;;
26820;SDS011;37186;51.394;5.454;2023-08-06T00:21:05;3.08;;;2.97;;
26820;SDS011;37186;51.394;5.454;2023-08-06T00:24:06;3.20;;;3.10;;
26820;SDS011;37186;51.394;5.454;2023-08-06T00:27:06;2.92;;;2.83;;
26820;SDS011;37186;51.394;5.454;2023-08-06T00:30:07;2.97;;;2.88;;
26820;SDS011;37186;51.394;5.454;2023-08-06T00:33:07;2.90;;;2.80;;
26820;SDS011;37186;51.394;5.454;2023-08-06T00:36:08;2.90;;;2.80;;
26820;SDS011;37186;51.394;5.454;2023-08-06T00:39:08;3.00;;;2.90;;
26820;SDS011;37186;51.394;5.454;2023-08-06T00:42:09;3.00;;;2.90;;
26820;SDS011;37186;51.394;5.454;2023-08-06T00:45:13;3.13;;;3.03;;
26820;SDS011;37186;51.394;5.454;2023-08-06T00:48:13;3.10;;;3.00;;
26820;SDS011;37186;51.394;5.454;2023-08-06T00:51:14;3.08;;;2.97;;
26820;SDS011;37186;51.394;5.454;2023-08-06T00:54:16;3.08;;;2.97;;
26820;SDS011;37186;51.394;5.454;2023-08-06T00:57:16;3.17;;;3.08;;
26820;SDS011;37186;51.394;5.454;2023-08-06T01:00:17;3.17;;;3.08;;
26820;SDS011;37186;51.394;5.454;2023-08-06T01:03:19;3.00;;;2.90;;
26820;SDS011;37186;51.394;5.454;2023-08-06T01:06:19;3.00;;;2.90;;
26820;SDS011;37186;51.394;5.454;2023-08-06T01:09:39;3.13;;;3.03;;
26820;SDS011;37186;51.394;5.454;2023-08-06T01:13:27;2.90;;;2.80;;
26820;SDS011;37186;51.394;5.454;2023-08-06T01:16:37;3.20;;;3.10;;
26820;SDS011;37186;51.394;5.454;2023-08-06T01:19:40;3.20;;;3.10;;
26820;SDS011;37186;51.394;5.454;2023-08-06T01:22:40;3.30;;;3.20;;
26820;SDS011;37186;51.394;5.454;2023-08-06T01:28:52;3.40;;;3.30;;
26820;SDS011;37186;51.394;5.454;2023-08-06T01:31:57;3.30;;;3.20;;
26820;SDS011;37186;51.394;5.454;2023-08-06T01:34:59;3.30;;;3.20;;
26820;SDS011;37186;51.394;5.454;2023-08-06T01:38:02;3.30;;;3.20;;
26820;SDS011;37186;51.394;5.454;2023-08-06T01:41:03;3.22;;;3.13;;
26820;SDS011;37186;51.394;5.454;2023-08-06T01:44:04;3.28;;;3.17;;
26820;SDS011;37186;51.394;5.454;2023-08-06T01:47:04;3.45;;;3.35;;
26820;SDS011;37186;51.394;5.454;2023-08-06T01:50:05;3.25;;;3.15;;
26820;SDS011;37186;51.394;5.454;2023-08-06T01:53:06;3.05;;;2.95;;
26820;SDS011;37186;51.394;5.454;2023-08-06T01:56:07;3.47;;;3.38;;
26820;SDS011;37186;51.394;5.454;2023-08-06T01:59:07;3.13;;;3.03;;
26820;SDS011;37186;51.394;5.454;2023-08-06T02:02:08;3.50;;;3.40;;
26820;SDS011;37186;51.394;5.454;2023-08-06T02:05:08;3.35;;;3.25;;
26820;SDS011;37186;51.394;5.454;2023-08-06T02:08:09;3.40;;;3.30;;
26820;SDS011;37186;51.394;5.454;2023-08-06T02:11:09;3.30;;;3.20;;
26820;SDS011;37186;51.394;5.454;2023-08-06T02:14:10;3.08;;;2.97;;
26820;SDS011;37186;51.394;5.454;2023-08-06T02:17:11;3.17;;;3.08;;
26820;SDS011;37186;51.394;5.454;2023-08-06T02:20:12;3.13;;;3.03;;
26820;SDS011;37186;51.394;5.454;2023-08-06T02:23:12;3.38;;;3.28;;
26820;SDS011;37186;51.394;5.454;2023-08-06T02:26:13;3.05;;;2.95;;
26820;SDS011;37186;51.394;5.454;2023-08-06T02:29:14;3.40;;;3.30;;
26820;SDS011;37186;51.394;5.454;2023-08-06T02:32:14;3.33;;;3.22;;
26820;SDS011;37186;51.394;5.454;2023-08-06T02:35:15;3.30;;;3.20;;
26820;SDS011;37186;51.394;5.454;2023-08-06T02:38:15;3.10;;;3.00;;
26820;SDS011;37186;51.394;5.454;2023-08-06T02:41:16;3.22;;;3.13;;
26820;SDS011;37186;51.394;5.454;2023-08-06T02:44:16;3.25;;;3.15;;
26820;SDS011;37186;51.394;5.454;2023-08-06T02:47:17;3.10;;;3.00;;
26820;SDS011;37186;51.394;5.454;2023-08-06T02:50:17;3.28;;;3.17;;
26820;SDS011;37186;51.394;5.454;2023-08-06T02:53:18;3.20;;;3.10;;
26820;SDS011;37186;51.394;5.454;2023-08-06T02:56:19;3.10;;;3.00;;
26820;SDS011;37186;51.394;5.454;2023-08-06T02:59:19;3.20;;;3.10;;
26820;SDS011;37186;51.394;5.454;2023-08-06T03:02:20;3.03;;;2.92;;
26820;SDS011;37186;51.394;5.454;2023-08-06T03:05:20;3.20;;;3.10;;
26820;SDS011;37186;51.394;5.454;2023-08-06T03:08:21;3.00;;;2.90;;
26820;SDS011;37186;51.394;5.454;2023-08-06T03:11:22;3.00;;;2.90;;
26820;SDS011;37186;51.394;5.454;2023-08-06T03:14:23;2.90;;;2.80;;
26820;SDS011;37186;51.394;5.454;2023-08-06T03:17:23;3.20;;;3.10;;
26820;SDS011;37186;51.394;5.454;2023-08-06T03:20:25;2.92;;;2.83;;
26820;SDS011;37186;51.394;5.454;2023-08-06T03:23:25;3.05;;;2.95;;
26820;SDS011;37186;51.394;5.454;2023-08-06T03:26:26;3.10;;;3.00;;
26820;SDS011;37186;51.394;5.454;2023-08-06T03:29:26;2.90;;;2.80;;
26820;SDS011;37186;51.394;5.454;2023-08-06T03:32:27;3.10;;;3.00;;
26820;SDS011;37186;51.394;5.454;2023-08-06T03:35:27;3.00;;;2.90;;
26820;SDS011;37186;51.394;5.454;2023-08-06T03:38:28;3.00;;;2.90;;
26820;SDS011;37186;51.394;5.454;2023-08-06T03:41:29;2.90;;;2.80;;
26820;SDS011;37186;51.394;5.454;2023-08-06T03:44:29;3.20;;;3.10;;
26820;SDS011;37186;51.394;5.454;2023-08-06T03:47:30;3.00;;;2.90;;
26820;SDS011;37186;51.394;5.454;2023-08-06T03:50:31;3.10;;;3.00;;
26820;SDS011;37186;51.394;5.454;2023-08-06T03:53:32;3.10;;;3.00;;
26820;SDS011;37186;51.394;5.454;2023-08-06T03:56:32;2.97;;;2.88;;
26820;SDS011;37186;51.394;5.454;2023-08-06T03:59:33;3.03;;;2.92;;
26820;SDS011;37186;51.394;5.454;2023-08-06T04:02:33;3.20;;;3.10;;
26820;SDS011;37186;51.394;5.454;2023-08-06T04:05:34;3.00;;;2.90;;
26820;SDS011;37186;51.394;5.454;2023-08-06T04:08:34;3.05;;;2.95;;
26820;SDS011;37186;51.394;5.454;2023-08-06T04:11:35;2.92;;;2.83;;
26820;SDS011;37186;51.394;5.454;2023-08-06T04:14:36;3.10;;;3.00;;
26820;SDS011;37186;51.394;5.454;2023-08-06T04:17:37;3.05;;;2.95;;
26820;SDS011;37186;51.394;5.454;2023-08-06T04:20:44;3.00;;;2.90;;
26820;SDS011;37186;51.394;5.454;2023-08-06T04:23:49;2.90;;;2.80;;
26820;SDS011;37186;51.394;5.454;2023-08-06T04:26:50;3.10;;;3.00;;
26820;SDS011;37186;51.394;5.454;2023-08-06T04:29:50;3.00;;;2.90;;
26820;SDS011;37186;51.394;5.454;2023-08-06T04:32:51;3.00;;;2.90;;
26820;SDS011;37186;51.394;5.454;2023-08-06T04:35:53;2.80;;;2.70;;
26820;SDS011;37186;51.394;5.454;2023-08-06T04:38:55;3.00;;;2.90;;
26820;SDS011;37186;51.394;5.454;2023-08-06T04:41:56;3.10;;;3.00;;
26820;SDS011;37186;51.394;5.454;2023-08-06T04:45:01;3.05;;;2.95;;
26820;SDS011;37186;51.394;5.454;2023-08-06T04:48:02;2.90;;;2.80;;
26820;SDS011;37186;51.394;5.454;2023-08-06T04:51:02;2.80;;;2.70;;
26820;SDS011;37186;51.394;5.454;2023-08-06T04:54:03;2.90;;;2.80;;
26820;SDS011;37186;51.394;5.454;2023-08-06T04:57:04;2.97;;;2.88;;
26820;SDS011;37186;51.394;5.454;2023-08-06T05:00:05;3.10;;;3.00;;
26820;SDS011;37186;51.394;5.454;2023-08-06T05:03:06;2.97;;;2.88;;
26820;SDS011;37186;51.394;5.454;2023-08-06T05:06:07;3.10;;;3.00;;
26820;SDS011;37186;51.394;5.454;2023-08-06T05:09:07;3.20;;;3.10;;
26820;SDS011;37186;51.394;5.454;2023-08-06T05:12:08;3.20;;;3.10;;
26820;SDS011;37186;51.394;5.454;2023-08-06T05:15:09;3.10;;;3.00;;
26820;SDS011;37186;51.394;5.454;2023-08-06T05:18:09;3.10;;;3.00;;
26820;SDS011;37186;51.394;5.454;2023-08-06T05:21:11;3.10;;;3.00;;
26820;SDS011;37186;51.394;5.454;2023-08-06T05:24:12;3.20;;;3.10;;
26820;SDS011;37186;51.394;5.454;2023-08-06T05:27:12;3.10;;;3.00;;
26820;SDS011;37186;51.394;5.454;2023-08-06T05:30:13;3.22;;;3.13;;
26820;SDS011;37186;51.394;5.454;2023-08-06T05:33:13;3.10;;;3.00;;
26820;SDS011;37186;51.394;5.454;2023-08-06T05:36:14;3.20;;;3.10;;
26820;SDS011;37186;51.394;5.454;2023-08-06T05:39:14;3.13;;;3.03;;
26820;SDS011;37186;51.394;5.454;2023-08-06T05:42:15;3.30;;;3.20;;
26820;SDS011;37186;51.394;5.454;2023-08-06T05:45:16;2.90;;;2.80;;
26820;SDS011;37186;51.394;5.454;2023-08-06T05:48:17;3.00;;;2.90;;
26820;SDS011;37186;51.394;5.454;2023-08-06T05:51:17;3.10;;;3.00;;
26820;SDS011;37186;51.394;5.454;2023-08-06T05:54:19;2.97;;;2.88;;
26820;SDS011;37186;51.394;5.454;2023-08-06T05:57:20;2.88;;;2.78;;
26820;SDS011;37186;51.394;5.454;2023-08-06T06:00:21;2.80;;;2.70;;
26820;SDS011;37186;51.394;5.454;2023-08-06T06:03:21;2.92;;;2.83;;
26820;SDS011;37186;51.394;5.454;2023-08-06T06:06:22;2.80;;;2.70;;
26820;SDS011;37186;51.394;5.454;2023-08-06T06:09:23;3.00;;;2.90;;
26820;SDS011;37186;51.394;5.454;2023-08-06T06:12:23;2.90;;;2.80;;
26820;SDS011;37186;51.394;5.454;2023-08-06T06:15:25;2.80;;;2.70;;
26820;SDS011;37186;51.394;5.454;2023-08-06T06:18:26;2.90;;;2.80;;
26820;SDS011;37186;51.394;5.454;2023-08-06T06:21:26;2.97;;;2.88;;
26820;SDS011;37186;51.394;5.454;2023-08-06T06:24:27;2.90;;;2.80;;
26820;SDS011;37186;51.394;5.454;2023-08-06T06:27:28;2.90;;;2.80;;
26820;SDS011;37186;51.394;5.454;2023-08-06T06:30:28;2.95;;;2.85;;
26820;SDS011;37186;51.394;5.454;2023-08-06T06:33:29;2.78;;;2.70;;
26820;SDS011;37186;51.394;5.454;2023-08-06T06:36:29;2.60;;;2.60;;
26820;SDS011;37186;51.394;5.454;2023-08-06T06:39:30;2.70;;;2.70;;
26820;SDS011;37186;51.394;5.454;2023-08-06T06:42:30;2.60;;;2.60;;
26820;SDS011;37186;51.394;5.454;2023-08-06T06:45:31;2.90;;;2.80;;
26820;SDS011;37186;51.394;5.454;2023-08-06T06:48:32;2.70;;;2.70;;
26820;SDS011;37186;51.394;5.454;2023-08-06T06:51:33;2.80;;;2.70;;
26820;SDS011;37186;51.394;5.454;2023-08-06T06:54:33;2.63;;;2.63;;
26820;SDS011;37186;51.394;5.454;2023-08-06T06:57:34;2.90;;;2.80;;
26820;SDS011;37186;51.394;5.454;2023-08-06T07:00:37;3.10;;;3.00;;
26820;SDS011;37186;51.394;5.454;2023-08-06T07:03:38;3.20;;;3.10;;
26820;SDS011;37186;51.394;5.454;2023-08-06T07:06:39;3.10;;;3.00;;
26820;SDS011;37186;51.394;5.454;2023-08-06T07:09:39;3.00;;;2.90;;
26820;SDS011;37186;51.394;5.454;2023-08-06T07:12:40;3.20;;;3.10;;
26820;SDS011;37186;51.394;5.454;2023-08-06T07:15:41;2.90;;;2.80;;
26820;SDS011;37186;51.394;5.454;2023-08-06T07:18:41;3.00;;;2.90;;
26820;SDS011;37186;51.394;5.454;2023-08-06T07:21:42;3.28;;;3.17;;
26820;SDS011;37186;51.394;5.454;2023-08-06T07:24:42;3.00;;;2.90;;
26820;SDS011;37186;51.394;5.454;2023-08-06T07:27:43;2.60;;;2.60;;
26820;SDS011;37186;51.394;5.454;2023-08-06T07:30:44;2.40;;;2.40;;
26820;SDS011;37186;51.394;5.454;2023-08-06T07:33:45;2.72;;;2.67;;
26820;SDS011;37186;51.394;5.454;2023-08-06T07:36:46;2.90;;;2.80;;
26820;SDS011;37186;51.394;5.454;2023-08-06T07:39:47;2.90;;;2.80;;
26820;SDS011;37186;51.394;5.454;2023-08-06T07:42:47;3.00;;;2.90;;
26820;SDS011;37186;51.394;5.454;2023-08-06T07:45:48;3.20;;;3.10;;
26820;SDS011;37186;51.394;5.454;2023-08-06T07:48:49;3.35;;;3.25;;
26820;SDS011;37186;51.394;5.454;2023-08-06T07:51:49;3.28;;;3.17;;
26820;SDS011;37186;51.394;5.454;2023-08-06T07:54:51;3.47;;;3.38;;
26820;SDS011;37186;51.394;5.454;2023-08-06T07:57:52;3.10;;;3.00;;
26820;SDS011;37186;51.394;5.454;2023-08-06T08:00:53;2.53;;;2.53;;
26820;SDS011;37186;51.394;5.454;2023-08-06T08:03:54;2.65;;;2.63;;
26820;SDS011;37186;51.394;5.454;2023-08-06T08:06:54;2.55;;;2.55;;
26820;SDS011;37186;51.394;5.454;2023-08-06T08:09:55;2.63;;;2.63;;
26820;SDS011;37186;51.394;5.454;2023-08-06T08:12:56;2.55;;;2.50;;
26820;SDS011;37186;51.394;5.454;2023-08-06T08:15:57;2.63;;;2.60;;
26820;SDS011;37186;51.394;5.454;2023-08-06T08:18:58;2.85;;;2.75;;
26820;SDS011;37186;51.394;5.454;2023-08-06T08:21:58;2.80;;;2.75;;
26820;SDS011;37186;51.394;5.454;2023-08-06T08:24:59;2.90;;;2.80;;
26820;SDS011;37186;51.394;5.454;2023-08-06T08:28:00;2.75;;;2.70;;
26820;SDS011;37186;51.394;5.454;2023-08-06T08:31:00;2.90;;;2.80;;
26820;SDS011;37186;51.394;5.454;2023-08-06T08:34:01;2.80;;;2.70;;
26820;SDS011;37186;51.394;5.454;2023-08-06T08:37:01;2.45;;;2.45;;
26820;SDS011;37186;51.394;5.454;2023-08-06T08:40:02;2.70;;;2.63;;
26820;SDS011;37186;51.394;5.454;2023-08-06T08:43:03;2.67;;;2.60;;
26820;SDS011;37186;51.394;5.454;2023-08-06T08:46:05;2.88;;;2.78;;
26820;SDS011;37186;51.394;5.454;2023-08-06T08:49:08;2.60;;;2.60;;
26820;SDS011;37186;51.394;5.454;2023-08-06T08:52:08;2.78;;;2.67;;
26820;SDS011;37186;51.394;5.454;2023-08-06T08:55:14;2.80;;;2.70;;
26820;SDS011;37186;51.394;5.454;2023-08-06T08:58:15;2.88;;;2.78;;
26820;SDS011;37186;51.394;5.454;2023-08-06T09:01:16;2.72;;;2.63;;
26820;SDS011;37186;51.394;5.454;2023-08-06T09:04:17;2.90;;;2.80;;
26820;SDS011;37186;51.394;5.454;2023-08-06T09:07:18;2.90;;;2.80;;
26820;SDS011;37186;51.394;5.454;2023-08-06T09:10:20;2.90;;;2.80;;
26820;SDS011;37186;51.394;5.454;2023-08-06T09:13:25;2.83;;;2.72;;
26820;SDS011;37186;51.394;5.454;2023-08-06T09:16:26;2.90;;;2.80;;
26820;SDS011;37186;51.394;5.454;2023-08-06T09:19:26;3.00;;;2.90;;
26820;SDS011;37186;51.394;5.454;2023-08-06T09:22:33;2.90;;;2.80;;
26820;SDS011;37186;51.394;5.454;2023-08-06T09:25:36;3.10;;;3.00;;
26820;SDS011;37186;51.394;5.454;2023-08-06T09:28:39;3.00;;;2.90;;
26820;SDS011;37186;51.394;5.454;2023-08-06T09:34:46;3.00;;;2.90;;
26820;SDS011;37186;51.394;5.454;2023-08-06T09:37:47;3.00;;;2.90;;
26820;SDS011;37186;51.394;5.454;2023-08-06T09:40:47;2.90;;;2.80;;
26820;SDS011;37186;51.394;5.454;2023-08-06T09:43:48;3.00;;;2.90;;
26820;SDS011;37186;51.394;5.454;2023-08-06T09:46:49;2.95;;;2.85;;
26820;SDS011;37186;51.394;5.454;2023-08-06T09:49:51;3.20;;;3.10;;
26820;SDS011;37186;51.394;5.454;2023-08-06T09:52:51;2.97;;;2.88;;
26820;SDS011;37186;51.394;5.454;2023-08-06T09:55:52;2.95;;;2.85;;
26820;SDS011;37186;51.394;5.454;2023-08-06T09:58:53;3.05;;;2.95;;
26820;SDS011;37186;51.394;5.454;2023-08-06T10:01:55;3.20;;;3.10;;
26820;SDS011;37186;51.394;5.454;2023-08-06T10:04:56;3.15;;;3.05;;
26820;SDS011;37186;51.394;5.454;2023-08-06T10:07:59;3.20;;;3.10;;
26820;SDS011;37186;51.394;5.454;2023-08-06T10:11:02;3.20;;;3.10;;
26820;SDS011;37186;51.394;5.454;2023-08-06T10:14:22;3.03;;;2.92;;
26820;SDS011;37186;51.394;5.454;2023-08-06T10:17:26;3.10;;;3.00;;
26820;SDS011;37186;51.394;5.454;2023-08-06T10:20:32;2.90;;;2.80;;
26820;SDS011;37186;51.394;5.454;2023-08-06T10:23:35;3.03;;;2.92;;
26820;SDS011;37186;51.394;5.454;2023-08-06T10:26:38;2.97;;;2.88;;
26820;SDS011;37186;51.394;5.454;2023-08-06T10:29:38;3.13;;;3.03;;
26820;SDS011;37186;51.394;5.454;2023-08-06T10:32:46;2.80;;;2.70;;
26820;SDS011;37186;51.394;5.454;2023-08-06T10:35:50;2.80;;;2.70;;
26820;SDS011;37186;51.394;5.454;2023-08-06T10:38:53;3.08;;;2.97;;
26820;SDS011;37186;51.394;5.454;2023-08-06T10:41:58;3.00;;;2.90;;
26820;SDS011;37186;51.394;5.454;2023-08-06T10:45:14;2.92;;;2.83;;
26820;SDS011;37186;51.394;5.454;2023-08-06T10:48:27;3.13;;;3.03;;
26820;SDS011;37186;51.394;5.454;2023-08-06T10:51:30;3.22;;;3.13;;
26820;SDS011;37186;51.394;5.454;2023-08-06T10:54:31;3.13;;;3.03;;
26820;SDS011;37186;51.394;5.454;2023-08-06T10:57:31;3.20;;;3.10;;
26820;SDS011;37186;51.394;5.454;2023-08-06T11:00:32;3.58;;;3.47;;
26820;SDS011;37186;51.394;5.454;2023-08-06T11:03:33;3.58;;;3.47;;
26820;SDS011;37186;51.394;5.454;2023-08-06T11:06:34;3.35;;;3.25;;
26820;SDS011;37186;51.394;5.454;2023-08-06T11:09:34;3.25;;;3.15;;
26820;SDS011;37186;51.394;5.454;2023-08-06T11:12:35;3.38;;;3.28;;
26820;SDS011;37186;51.394;5.454;2023-08-06T11:15:36;3.35;;;3.25;;
26820;SDS011;37186;51.394;5.454;2023-08-06T11:18:37;3.10;;;3.00;;
26820;SDS011;37186;51.394;5.454;2023-08-06T11:21:37;3.08;;;2.97;;
26820;SDS011;37186;51.394;5.454;2023-08-06T11:24:39;3.08;;;2.97;;
26820;SDS011;37186;51.394;5.454;2023-08-06T11:27:40;3.28;;;3.17;;
26820;SDS011;37186;51.394;5.454;2023-08-06T11:30:40;3.30;;;3.20;;
26820;SDS011;37186;51.394;5.454;2023-08-06T11:33:41;3.10;;;3.00;;
26820;SDS011;37186;51.394;5.454;2023-08-06T11:36:42;3.10;;;3.00;;
26820;SDS011;37186;51.394;5.454;2023-08-06T11:39:48;3.10;;;3.00;;
26820;SDS011;37186;51.394;5.454;2023-08-06T11:42:50;3.10;;;3.00;;
26820;SDS011;37186;51.394;5.454;2023-08-06T11:45:51;3.05;;;2.95;;
26820;SDS011;37186;51.394;5.454;2023-08-06T11:48:54;3.10;;;3.00;;
26820;SDS011;37186;51.394;5.454;2023-08-06T11:51:55;3.00;;;2.90;;
26820;SDS011;37186;51.394;5.454;2023-08-06T11:55:00;3.20;;;3.10;;
26820;SDS011;37186;51.394;5.454;2023-08-06T11:58:08;3.00;;;2.90;;
26820;SDS011;37186;51.394;5.454;2023-08-06T12:01:10;3.20;;;3.10;;
26820;SDS011;37186;51.394;5.454;2023-08-06T12:04:10;3.30;;;3.20;;
26820;SDS011;37186;51.394;5.454;2023-08-06T12:07:11;3.30;;;3.20;;
26820;SDS011;37186;51.394;5.454;2023-08-06T12:10:12;3.30;;;3.20;;
26820;SDS011;37186;51.394;5.454;2023-08-06T12:13:13;3.50;;;3.40;;
26820;SDS011;37186;51.394;5.454;2023-08-06T12:16:13;3.35;;;3.25;;
26820;SDS011;37186;51.394;5.454;2023-08-06T12:19:14;3.30;;;3.20;;
26820;SDS011;37186;51.394;5.454;2023-08-06T12:22:15;3.38;;;3.28;;
26820;SDS011;37186;51.394;5.454;2023-08-06T12:25:16;3.42;;;3.33;;
26820;SDS011;37186;51.394;5.454;2023-08-06T12:28:16;3.40;;;3.30;;
26820;SDS011;37186;51.394;5.454;2023-08-06T12:31:17;3.30;;;3.20;;
26820;SDS011;37186;51.394;5.454;2023-08-06T12:34:17;3.40;;;3.30;;
26820;SDS011;37186;51.394;5.454;2023-08-06T12:37:18;3.10;;;3.00;;
26820;SDS011;37186;51.394;5.454;2023-08-06T12:40:19;3.22;;;3.13;;
26820;SDS011;37186;51.394;5.454;2023-08-06T12:43:20;3.38;;;3.28;;
26820;SDS011;37186;51.394;5.454;2023-08-06T12:46:20;3.20;;;3.10;;
26820;SDS011;37186;51.394;5.454;2023-08-06T12:49:21;3.30;;;3.20;;
26820;SDS011;37186;51.394;5.454;2023-08-06T12:52:22;3.00;;;2.90;;
26820;SDS011;37186;51.394;5.454;2023-08-06T12:55:23;3.10;;;3.00;;
26820;SDS011;37186;51.394;5.454;2023-08-06T12:58:23;2.90;;;2.80;;
26820;SDS011;37186;51.394;5.454;2023-08-06T13:01:24;3.15;;;3.05;;
26820;SDS011;37186;51.394;5.454;2023-08-06T13:04:24;3.00;;;2.90;;
26820;SDS011;37186;51.394;5.454;2023-08-06T13:07:25;3.10;;;3.00;;
26820;SDS011;37186;51.394;5.454;2023-08-06T13:10:25;2.97;;;2.88;;
26820;SDS011;37186;51.394;5.454;2023-08-06T13:13:27;3.00;;;2.90;;
26820;SDS011;37186;51.394;5.454;2023-08-06T13:16:27;2.97;;;2.88;;
26820;SDS011;37186;51.394;5.454;2023-08-06T13:19:29;3.10;;;3.00;;
26820;SDS011;37186;51.394;5.454;2023-08-06T13:22:29;3.00;;;2.90;;
26820;SDS011;37186;51.394;5.454;2023-08-06T13:25:30;2.90;;;2.80;;
26820;SDS011;37186;51.394;5.454;2023-08-06T13:28:34;3.03;;;2.92;;
26820;SDS011;37186;51.394;5.454;2023-08-06T13:31:35;3.03;;;2.92;;
26820;SDS011;37186;51.394;5.454;2023-08-06T13:34:35;2.88;;;2.78;;
26820;SDS011;37186;51.394;5.454;2023-08-06T13:37:36;3.00;;;2.90;;
26820;SDS011;37186;51.394;5.454;2023-08-06T13:40:36;3.33;;;3.22;;
26820;SDS011;37186;51.394;5.454;2023-08-06T13:43:37;3.08;;;2.97;;
26820;SDS011;37186;51.394;5.454;2023-08-06T13:46:38;3.33;;;3.22;;
26820;SDS011;37186;51.394;5.454;2023-08-06T13:49:39;3.08;;;2.97;;
26820;SDS011;37186;51.394;5.454;2023-08-06T13:52:39;3.15;;;3.05;;
26820;SDS011;37186;51.394;5.454;2023-08-06T13:55:40;3.42;;;3.33;;
26820;SDS011;37186;51.394;5.454;2023-08-06T13:58:40;2.97;;;2.88;;
26820;SDS011;37186;51.394;5.454;2023-08-06T14:01:41;3.05;;;2.95;;
26820;SDS011;37186;51.394;5.454;2023-08-06T14:04:41;2.97;;;2.88;;
26820;SDS011;37186;51.394;5.454;2023-08-06T14:07:42;2.80;;;2.70;;
26820;SDS011;37186;51.394;5.454;2023-08-06T14:10:43;2.60;;;2.60;;
26820;SDS011;37186;51.394;5.454;2023-08-06T14:13:44;2.65;;;2.65;;
26820;SDS011;37186;51.394;5.454;2023-08-06T14:16:44;2.90;;;2.80;;
26820;SDS011;37186;51.394;5.454;2023-08-06T14:19:45;2.90;;;2.80;;
26820;SDS011;37186;51.394;5.454;2023-08-06T14:22:45;2.88;;;2.78;;
26820;SDS011;37186;51.394;5.454;2023-08-06T14:25:46;2.75;;;2.72;;
26820;SDS011;37186;51.394;5.454;2023-08-06T14:28:46;2.97;;;2.88;;
26820;SDS011;37186;51.394;5.454;2023-08-06T14:31:47;2.88;;;2.78;;
26820;SDS011;37186;51.394;5.454;2023-08-06T14:34:47;3.03;;;2.92;;
26820;SDS011;37186;51.394;5.454;2023-08-06T14:37:48;2.92;;;2.83;;
26820;SDS011;37186;51.394;5.454;2023-08-06T14:40:49;3.05;;;2.95;;
26820;SDS011;37186;51.394;5.454;2023-08-06T14:43:50;3.35;;;3.25;;
26820;SDS011;37186;51.394;5.454;2023-08-06T14:46:50;2.97;;;2.88;;
26820;SDS011;37186;51.394;5.454;2023-08-06T14:49:51;2.65;;;2.65;;
26820;SDS011;37186;51.394;5.454;2023-08-06T14:52:51;2.80;;;2.70;;
26820;SDS011;37186;51.394;5.454;2023-08-06T14:55:52;2.47;;;2.47;;
26820;SDS011;37186;51.394;5.454;2023-08-06T14:58:53;2.55;;;2.55;;
26820;SDS011;37186;51.394;5.454;2023-08-06T15:01:53;2.55;;;2.55;;
26820;SDS011;37186;51.394;5.454;2023-08-06T15:04:54;2.67;;;2.65;;
26820;SDS011;37186;51.394;5.454;2023-08-06T15:07:54;2.50;;;2.50;;
26820;SDS011;37186;51.394;5.454;2023-08-06T15:10:55;2.83;;;2.72;;
26820;SDS011;37186;51.394;5.454;2023-08-06T15:13:55;3.17;;;3.08;;
26820;SDS011;37186;51.394;5.454;2023-08-06T15:16:56;3.28;;;3.17;;
26820;SDS011;37186;51.394;5.454;2023-08-06T15:19:57;3.90;;;3.80;;
26820;SDS011;37186;51.394;5.454;2023-08-06T15:22:58;3.95;;;3.85;;
26820;SDS011;37186;51.394;5.454;2023-08-06T15:25:59;3.60;;;3.50;;
26820;SDS011;37186;51.394;5.454;2023-08-06T15:28:59;3.78;;;3.67;;
26820;SDS011;37186;51.394;5.454;2023-08-06T15:32:00;3.40;;;3.30;;
26820;SDS011;37186;51.394;5.454;2023-08-06T15:35:01;2.85;;;2.75;;
26820;SDS011;37186;51.394;5.454;2023-08-06T15:38:03;2.55;;;2.55;;
26820;SDS011;37186;51.394;5.454;2023-08-06T15:41:04;2.90;;;2.80;;
26820;SDS011;37186;51.394;5.454;2023-08-06T15:44:04;2.90;;;2.80;;
26820;SDS011;37186;51.394;5.454;2023-08-06T15:47:05;2.85;;;2.75;;
26820;SDS011;37186;51.394;5.454;2023-08-06T15:50:08;3.20;;;3.10;;
26820;SDS011;37186;51.394;5.454;2023-08-06T15:53:09;3.53;;;3.42;;
26820;SDS011;37186;51.394;5.454;2023-08-06T15:56:12;3.50;;;3.40;;
26820;SDS011;37186;51.394;5.454;2023-08-06T16:02:26;3.40;;;3.30;;
26820;SDS011;37186;51.394;5.454;2023-08-06T16:05:27;3.50;;;3.40;;
26820;SDS011;37186;51.394;5.454;2023-08-06T16:08:27;3.35;;;3.25;;
26820;SDS011;37186;51.394;5.454;2023-08-06T16:11:28;3.50;;;3.40;;
26820;SDS011;37186;51.394;5.454;2023-08-06T16:14:29;3.50;;;3.40;;
26820;SDS011;37186;51.394;5.454;2023-08-06T16:17:30;3.45;;;3.35;;
26820;SDS011;37186;51.394;5.454;2023-08-06T16:20:30;3.25;;;3.15;;
26820;SDS011;37186;51.394;5.454;2023-08-06T16:23:31;3.03;;;2.92;;
26820;SDS011;37186;51.394;5.454;2023-08-06T16:26:31;2.75;;;2.72;;
26820;SDS011;37186;51.394;5.454;2023-08-06T16:29:32;2.85;;;2.78;;
26820;SDS011;37186;51.394;5.454;2023-08-06T16:32:34;2.83;;;2.75;;
26820;SDS011;37186;51.394;5.454;2023-08-06T16:35:36;2.65;;;2.60;;
26820;SDS011;37186;51.394;5.454;2023-08-06T16:38:37;2.95;;;2.85;;
26820;SDS011;37186;51.394;5.454;2023-08-06T16:41:37;2.65;;;2.65;;
26820;SDS011;37186;51.394;5.454;2023-08-06T16:44:38;2.85;;;2.75;;
26820;SDS011;37186;51.394;5.454;2023-08-06T16:47:40;2.95;;;2.85;;
26820;SDS011;37186;51.394;5.454;2023-08-06T16:50:41;2.70;;;2.65;;
26820;SDS011;37186;51.394;5.454;2023-08-06T16:53:42;3.00;;;2.90;;
26820;SDS011;37186;51.394;5.454;2023-08-06T16:56:46;2.88;;;2.78;;
26820;SDS011;37186;51.394;5.454;2023-08-06T16:59:46;2.95;;;2.85;;
26820;SDS011;37186;51.394;5.454;2023-08-06T17:02:47;2.80;;;2.70;;
26820;SDS011;37186;51.394;5.454;2023-08-06T17:05:48;2.90;;;2.80;;
26820;SDS011;37186;51.394;5.454;2023-08-06T17:08:48;2.78;;;2.70;;
26820;SDS011;37186;51.394;5.454;2023-08-06T17:11:49;2.88;;;2.80;;
26820;SDS011;37186;51.394;5.454;2023-08-06T17:14:50;2.75;;;2.67;;
26820;SDS011;37186;51.394;5.454;2023-08-06T17:17:51;2.90;;;2.80;;
26820;SDS011;37186;51.394;5.454;2023-08-06T17:20:52;2.90;;;2.80;;
26820;SDS011;37186;51.394;5.454;2023-08-06T17:23:52;2.83;;;2.72;;
26820;SDS011;37186;51.394;5.454;2023-08-06T17:26:53;2.67;;;2.65;;
26820;SDS011;37186;51.394;5.454;2023-08-06T17:29:58;3.00;;;2.90;;
26820;SDS011;37186;51.394;5.454;2023-08-06T17:32:59;2.83;;;2.75;;
26820;SDS011;37186;51.394;5.454;2023-08-06T17:35:59;3.08;;;2.97;;
26820;SDS011;37186;51.394;5.454;2023-08-06T17:39:00;2.80;;;2.70;;
26820;SDS011;37186;51.394;5.454;2023-08-06T17:42:01;2.78;;;2.70;;
26820;SDS011;37186;51.394;5.454;2023-08-06T17:45:06;2.63;;;2.63;;
26820;SDS011;37186;51.394;5.454;2023-08-06T17:48:07;3.10;;;3.00;;
26820;SDS011;37186;51.394;5.454;2023-08-06T17:51:08;2.70;;;2.67;;
26820;SDS011;37186;51.394;5.454;2023-08-06T17:54:08;2.80;;;2.72;;
26820;SDS011;37186;51.394;5.454;2023-08-06T17:57:09;2.75;;;2.67;;
26820;SDS011;37186;51.394;5.454;2023-08-06T18:00:09;2.80;;;2.72;;
26820;SDS011;37186;51.394;5.454;2023-08-06T18:03:10;2.78;;;2.72;;
26820;SDS011;37186;51.394;5.454;2023-08-06T18:06:11;2.85;;;2.75;;
26820;SDS011;37186;51.394;5.454;2023-08-06T18:09:12;2.85;;;2.75;;
26820;SDS011;37186;51.394;5.454;2023-08-06T18:12:13;2.60;;;2.60;;
26820;SDS011;37186;51.394;5.454;2023-08-06T18:15:13;2.60;;;2.58;;
26820;SDS011;37186;51.394;5.454;2023-08-06T18:18:14;2.70;;;2.70;;
26820;SDS011;37186;51.394;5.454;2023-08-06T18:21:14;2.58;;;2.58;;